createdAt,value
2022-08-03T00:03:30.248Z,21.65
2022-08-03T00:08:32.233Z,21.68
2022-08-03T00:13:39.335Z,21.59
2022-08-03T00:18:40.991Z,21.53
2022-08-03T00:23:51.184Z,21.51
2022-08-03T00:28:55.651Z,21.47
2022-08-03T00:33:58.822Z,21.40
2022-08-03T00:39:01.717Z,21.30
2022-08-03T00:44:03.495Z,21.17
2022-08-03T00:49:05.129Z,21.02
2022-08-03T00:54:06.645Z,20.83
2022-08-03T00:59:10.349Z,20.73
2022-08-03T01:04:11.834Z,20.68
2022-08-03T01:09:38.757Z,20.63
2022-08-03T01:14:55.980Z,20.57
2022-08-03T01:20:07.171Z,20.51
2022-08-03T01:25:32.842Z,20.42
2022-08-03T01:30:37.680Z,20.36
2022-08-03T01:35:47.193Z,20.34
2022-08-03T01:40:51.903Z,20.35
2022-08-03T01:45:55.544Z,20.37
2022-08-03T01:50:59.471Z,20.35
2022-08-03T01:56:03.653Z,20.26
2022-08-03T02:01:07.101Z,20.15
2022-08-03T02:06:58.429Z,20.05
2022-08-03T02:11:36.330Z,19.93
2022-08-03T02:16:40.539Z,19.83
2022-08-03T02:21:57.305Z,19.73
2022-08-03T02:27:04.180Z,19.64
2022-08-03T02:32:08.103Z,19.59
2022-08-03T02:37:10.863Z,19.51
2022-08-03T02:42:16.578Z,19.41
2022-08-03T02:47:23.888Z,19.35
2022-08-03T02:52:28.196Z,19.30
2022-08-03T02:57:35.857Z,19.32
2022-08-03T03:02:39.962Z,19.26
2022-08-03T03:07:51.529Z,19.16
2022-08-03T03:12:57.801Z,19.11
2022-08-03T03:18:00.967Z,19.08
2022-08-03T03:23:03.595Z,19.06
2022-08-03T03:28:06.442Z,19.00
2022-08-03T03:33:08.395Z,18.95
2022-08-03T03:38:10.074Z,18.84
2022-08-03T03:43:12.316Z,18.79
2022-08-03T03:48:14.290Z,18.75
2022-08-03T03:53:16.254Z,18.72
2022-08-03T03:58:17.807Z,18.70
2022-08-03T04:03:20.021Z,18.72
2022-08-03T04:08:40.220Z,18.74
2022-08-03T04:14:02.296Z,18.79
2022-08-03T04:19:14.036Z,18.80
2022-08-03T04:24:16.124Z,18.94
2022-08-03T04:29:19.603Z,19.38
2022-08-03T04:34:21.081Z,19.95
2022-08-03T04:39:28.519Z,20.67
2022-08-03T04:44:34.035Z,22.27
2022-08-03T04:49:40.254Z,23.81
2022-08-03T04:54:48.761Z,25.17
2022-08-03T05:00:02.066Z,25.75
2022-08-03T05:05:04.640Z,27.15
2022-08-03T05:10:14.991Z,29.33
2022-08-03T05:15:17.988Z,31.68
2022-08-03T05:20:19.704Z,33.49
2022-08-03T05:25:23.358Z,34.93
2022-08-03T05:30:33.484Z,36.60
2022-08-03T05:35:57.702Z,37.96
2022-08-03T05:41:21.855Z,39.54
2022-08-03T05:46:21.346Z,40.45
2022-08-03T05:51:22.850Z,41.14
2022-08-03T05:56:27.871Z,41.36
2022-08-03T06:01:32.570Z,41.58
2022-08-03T06:06:34.130Z,42.39
2022-08-03T06:11:35.702Z,42.25
2022-08-03T06:16:37.208Z,43.29
2022-08-03T06:21:38.729Z,44.40
2022-08-03T06:26:41.353Z,45.06
2022-08-03T06:31:43.150Z,45.19
2022-08-03T06:36:44.615Z,45.68
2022-08-03T06:41:46.046Z,46.39
2022-08-03T06:46:47.795Z,46.87
2022-08-03T06:52:04.442Z,46.65
2022-08-03T06:57:12.267Z,47.04
2022-08-03T07:02:18.267Z,47.15
2022-08-03T07:07:21.709Z,47.43
2022-08-03T07:12:23.482Z,48.06
2022-08-03T07:17:25.379Z,48.12
2022-08-03T07:22:27.102Z,47.27
2022-08-03T07:27:30.316Z,47.92
2022-08-03T07:32:32.255Z,49.74
2022-08-03T07:37:34.096Z,50.48
2022-08-03T07:42:35.566Z,49.77
2022-08-03T07:47:37.191Z,49.22
2022-08-03T07:52:56.417Z,50.45
2022-08-03T07:58:05.746Z,51.43
2022-08-03T08:03:07.579Z,50.59
2022-08-03T08:08:12.000Z,51.29
2022-08-03T08:13:13.636Z,50.88
2022-08-03T08:18:15.133Z,49.89
2022-08-03T08:23:42.032Z,50.50
2022-08-03T08:28:44.615Z,50.92
2022-08-03T08:34:03.562Z,52.09
2022-08-03T08:39:05.751Z,52.44
2022-08-03T08:44:08.267Z,52.48
2022-08-03T08:49:11.271Z,51.76
2022-08-03T08:54:13.698Z,51.29
2022-08-03T08:59:16.379Z,50.39
2022-08-03T09:04:18.270Z,50.28
2022-08-03T09:10:08.470Z,48.65
2022-08-03T09:15:00.729Z,48.09
2022-08-03T09:20:08.255Z,46.96
2022-08-03T09:25:24.215Z,46.80
2022-08-03T09:30:34.789Z,46.08
2022-08-03T09:35:54.461Z,45.34
2022-08-03T09:41:00.455Z,45.44
2022-08-03T09:46:07.638Z,45.45
2022-08-03T09:51:12.877Z,45.82
2022-08-03T09:56:36.197Z,46.19
2022-08-03T10:01:38.815Z,46.24
2022-08-03T10:06:40.848Z,46.07
2022-08-03T10:11:44.660Z,45.30
2022-08-03T10:16:47.574Z,44.93
2022-08-03T10:22:07.928Z,43.30
2022-08-03T10:27:12.769Z,43.03
2022-08-03T10:32:23.833Z,42.52
2022-08-03T10:37:48.338Z,41.93
2022-08-03T10:43:11.007Z,42.50
2022-08-03T10:48:19.713Z,42.25
2022-08-03T10:53:54.563Z,41.98
2022-08-03T10:58:57.509Z,41.54
2022-08-03T11:03:59.789Z,41.00
2022-08-03T11:09:10.541Z,40.61
2022-08-03T11:14:16.479Z,40.00
2022-08-03T11:19:24.389Z,38.77
2022-08-03T11:24:43.638Z,38.76
2022-08-03T11:30:10.644Z,38.55
2022-08-03T11:35:25.724Z,37.38
2022-08-03T11:40:50.277Z,37.14
2022-08-03T11:46:06.309Z,36.86
2022-08-03T11:51:19.800Z,37.11
2022-08-03T11:56:21.916Z,37.53
2022-08-03T12:01:27.293Z,37.72
2022-08-03T12:06:28.769Z,38.02
2022-08-03T12:11:30.627Z,38.08
2022-08-03T12:16:32.459Z,37.74
2022-08-03T12:21:34.304Z,37.29
2022-08-03T12:26:58.590Z,37.42
2022-08-03T12:32:01.169Z,37.53
2022-08-03T12:37:22.518Z,37.49
2022-08-03T12:42:36.501Z,37.45
2022-08-03T12:47:54.835Z,37.27
2022-08-03T12:52:58.714Z,37.19
2022-08-03T12:58:01.385Z,36.97
2022-08-03T13:08:29.541Z,36.86
2022-08-03T13:13:40.439Z,36.97
2022-08-03T13:18:41.926Z,36.90
2022-08-03T13:23:44.928Z,36.96
2022-08-03T13:28:46.949Z,36.78
2022-08-03T13:33:48.477Z,36.64
2022-08-03T13:38:49.899Z,36.70
2022-08-03T13:44:12.040Z,36.58
2022-08-03T13:49:14.213Z,36.69
2022-08-03T13:54:16.215Z,36.86
2022-08-03T13:59:18.654Z,36.64
2022-08-03T14:04:22.513Z,36.63
2022-08-03T14:09:24.760Z,36.35
2022-08-03T14:14:26.198Z,36.58
2022-08-03T14:19:28.472Z,36.82
2022-08-03T14:24:30.382Z,36.77
2022-08-03T14:29:31.858Z,36.57
2022-08-03T14:34:33.708Z,36.67
2022-08-03T14:45:03.461Z,36.89
2022-08-03T14:50:37.282Z,36.92
2022-08-03T14:55:38.459Z,36.71
2022-08-03T15:00:43.613Z,36.58
2022-08-03T15:05:45.757Z,36.72
2022-08-03T15:10:49.222Z,36.79
2022-08-03T15:15:52.240Z,36.52
2022-08-03T15:20:54.955Z,36.65
2022-08-03T15:26:28.247Z,36.25
2022-08-03T15:31:25.353Z,36.24
2022-08-03T15:36:27.776Z,36.37
2022-08-03T15:41:29.465Z,36.41
2022-08-03T15:46:31.698Z,36.53
2022-08-03T15:51:33.234Z,36.59
2022-08-03T15:56:35.667Z,36.50
2022-08-03T16:01:38.429Z,36.48
2022-08-03T16:06:41.156Z,36.53
2022-08-03T16:11:43.198Z,36.49
2022-08-03T16:16:44.975Z,36.52
2022-08-03T16:21:50.131Z,36.50
2022-08-03T16:26:51.855Z,36.47
2022-08-03T16:31:53.536Z,36.47
2022-08-03T16:36:58.638Z,36.47
2022-08-03T16:42:01.813Z,36.43
2022-08-03T16:47:03.806Z,36.38
2022-08-03T16:52:07.180Z,36.38
2022-08-03T16:57:09.907Z,36.30
2022-08-03T17:02:26.163Z,36.20
2022-08-03T17:07:29.673Z,36.14
2022-08-03T17:12:32.309Z,36.10
2022-08-03T17:17:53.739Z,36.00
2022-08-03T17:23:14.511Z,35.81
2022-08-03T17:28:49.400Z,35.66
2022-08-03T17:33:54.593Z,35.59
2022-08-03T17:38:57.585Z,35.51
2022-08-03T17:44:15.721Z,35.40
2022-08-03T17:49:24.859Z,35.32
2022-08-03T18:00:31.192Z,34.97
2022-08-03T18:06:12.003Z,34.82
2022-08-03T18:11:14.919Z,34.66
2022-08-03T18:16:44.093Z,34.48
2022-08-03T18:22:03.107Z,34.29
2022-08-03T18:27:06.570Z,34.09
2022-08-03T18:32:13.713Z,33.89
2022-08-03T18:37:24.999Z,33.69
2022-08-03T18:42:27.520Z,33.51
2022-08-03T18:47:57.898Z,33.31
2022-08-03T18:54:02.293Z,33.06
2022-08-03T18:59:30.247Z,32.85
2022-08-03T19:04:38.575Z,32.65
2022-08-03T19:09:54.500Z,32.43
2022-08-03T19:15:00.989Z,32.17
2022-08-03T19:20:07.034Z,31.96
2022-08-03T19:25:12.016Z,31.73
2022-08-03T19:30:35.298Z,31.48
2022-08-03T19:35:51.370Z,31.24
2022-08-03T19:41:01.487Z,31.05
2022-08-03T19:46:11.583Z,30.84
2022-08-03T19:51:15.746Z,30.56
2022-08-03T19:56:22.877Z,30.27
2022-08-03T20:01:25.655Z,29.92
2022-08-03T20:06:30.873Z,29.63
2022-08-03T20:11:33.815Z,29.44
2022-08-03T20:16:47.202Z,29.11
2022-08-03T20:21:51.343Z,28.84
2022-08-03T20:26:57.854Z,28.65
2022-08-03T20:31:59.801Z,28.46
2022-08-03T20:37:03.571Z,28.28
2022-08-03T20:42:05.499Z,28.23
2022-08-03T20:47:10.645Z,28.17
2022-08-03T20:52:18.921Z,28.00
2022-08-03T20:57:20.993Z,27.83
2022-08-03T21:02:29.883Z,27.73
2022-08-03T21:08:05.518Z,27.63
2022-08-03T21:12:55.595Z,35.16
2022-08-03T21:13:17.137Z,27.53
2022-08-03T21:18:20.465Z,27.44
2022-08-03T21:23:40.030Z,27.35
2022-08-03T21:28:46.429Z,27.30
2022-08-03T21:33:48.433Z,27.22
2022-08-03T21:38:56.496Z,27.14
2022-08-03T21:44:00.181Z,27.05
2022-08-03T21:50:06.776Z,26.91
2022-08-03T21:54:34.169Z,26.76
2022-08-03T21:59:40.034Z,26.74
2022-08-03T22:04:53.030Z,26.78
2022-08-03T22:09:59.596Z,26.82
2022-08-03T22:15:06.071Z,26.82
2022-08-03T22:20:14.614Z,26.79
2022-08-03T22:25:16.467Z,26.76
2022-08-03T22:30:19.567Z,26.74
2022-08-03T22:35:23.177Z,26.67
2022-08-03T22:40:26.039Z,26.48
2022-08-03T22:46:06.139Z,26.37
2022-08-03T22:50:50.994Z,26.22
2022-08-03T22:55:52.637Z,25.99
2022-08-03T23:01:26.221Z,25.78
2022-08-03T23:06:34.663Z,25.73
2022-08-03T23:11:45.226Z,25.76
2022-08-03T23:16:48.101Z,25.77
2022-08-03T23:22:00.805Z,25.78
2022-08-03T23:27:10.730Z,25.68
2022-08-03T23:32:13.107Z,25.43
2022-08-03T23:37:17.698Z,25.22
2022-08-03T23:42:20.600Z,25.10
2022-08-03T23:47:22.553Z,25.11
2022-08-03T23:52:36.138Z,25.00
2022-08-03T23:57:50.123Z,24.88
